Accueil
METAR-TAF:

METAR-TAF

Aéroports :

Mannheim, Allemagne

Aéroport de Mannheim

latitude: 49-28-21N, longitude: 008-30-56E, altitude: 100 m

Observation

Le bulletin a été fait il y a 25 minutes, à 09:50 UTC
Vent 8 kt de nord-ouest, variant entre ouest et nord/nord-est
Température 12°C
Humidité 35%
Pression 1014 hPa
Visibilité 10 km ou plus
pas de nuages en-dessous de 1500 mètres et pas de cumulonimbus.

METAR: EDFM 280950Z 32008KT 280V030 CAVOK 12/M03 Q1014

Heure: 12:15 (10:15 UTC)

Prévision

Le bulletin a été fait il y a 2 heures et 15 minutes, à 08:00 UTC
Prévision valable du 28 à 09 UTC au 28 à 18 UTC
Vent 5 kt de nord
Visibilité 10 km ou plus
Quelques nuages à une hauteur de 4500 ft
Evoluant progressivement
du 28 à 10 UTC au 28 à 13 UTC
Vent 7 kt de ouest/nord-ouest

TAF: EDFM 280800Z 2809/2818 36005KT 9999 FEW045 BECMG 2810/2813 29007KT

Observations et prévisions météorologiques de plus de 4000 aéroports (messages METAR et TAF).

Les stations disponibles sont représentées par des disques jaunes et rouges sur la carte.

Passer la souris dessus pour voir le nom de la station.

Cliquer dessus pour voir les observations et prévisions météorologiques.

Pour changer de carte: cliquez sur les boutons verts avec une croix noire pour zoomer, sur le bouton vert avec un tiret pour effectuer un zoom arrière, ou sur les flèches vertes pour les cartes adjacentes.


METAR-TAF: